sensor_id;sensor_type;location;lat;lon;timestamp;P1;durP1;ratioP1;P2;durP2;ratioP2
41221;SDS011;26952;42.884;23.918;2022-09-03T00:00:44;88.05;;;83.30;;
41221;SDS011;26952;42.884;23.918;2022-09-03T00:03:19;109.32;;;103.75;;
41221;SDS011;26952;42.884;23.918;2022-09-03T00:11:13;103.18;;;97.88;;
41221;SDS011;26952;42.884;23.918;2022-09-03T00:17:35;104.07;;;98.80;;
41221;SDS011;26952;42.884;23.918;2022-09-03T00:19:36;96.00;;;90.78;;
41221;SDS011;26952;42.884;23.918;2022-09-03T00:22:16;117.93;;;111.97;;
41221;SDS011;26952;42.884;23.918;2022-09-03T00:24:47;112.00;;;106.20;;
41221;SDS011;26952;42.884;23.918;2022-09-03T00:27:19;116.22;;;110.35;;
41221;SDS011;26952;42.884;23.918;2022-09-03T00:29:59;119.40;;;113.15;;
41221;SDS011;26952;42.884;23.918;2022-09-03T00:35:03;124.03;;;117.47;;
41221;SDS011;26952;42.884;23.918;2022-09-03T00:37:33;122.80;;;116.43;;
41221;SDS011;26952;42.884;23.918;2022-09-03T00:39:59;125.28;;;118.63;;
41221;SDS011;26952;42.884;23.918;2022-09-03T00:42:30;129.82;;;123.18;;
41221;SDS011;26952;42.884;23.918;2022-09-03T00:45:07;125.43;;;118.95;;
41221;SDS011;26952;42.884;23.918;2022-09-03T00:50:08;121.55;;;114.97;;
41221;SDS011;26952;42.884;23.918;2022-09-03T00:55:33;109.00;;;103.30;;
41221;SDS011;26952;42.884;23.918;2022-09-03T01:00:46;112.85;;;106.82;;
41221;SDS011;26952;42.884;23.918;2022-09-03T01:03:22;117.95;;;111.78;;
41221;SDS011;26952;42.884;23.918;2022-09-03T01:06:22;117.35;;;111.22;;
41221;SDS011;26952;42.884;23.918;2022-09-03T01:30:56;121.80;;;115.50;;
41221;SDS011;26952;42.884;23.918;2022-09-03T01:33:39;112.00;;;106.32;;
41221;SDS011;26952;42.884;23.918;2022-09-03T01:38:46;121.55;;;115.22;;
41221;SDS011;26952;42.884;23.918;2022-09-03T01:50:06;112.80;;;107.00;;
41221;SDS011;26952;42.884;23.918;2022-09-03T01:57:49;117.32;;;111.22;;
41221;SDS011;26952;42.884;23.918;2022-09-03T02:00:22;115.88;;;109.63;;
41221;SDS011;26952;42.884;23.918;2022-09-03T02:02:49;121.53;;;115.28;;
41221;SDS011;26952;42.884;23.918;2022-09-03T02:05:17;125.85;;;119.40;;
41221;SDS011;26952;42.884;23.918;2022-09-03T02:07:50;113.55;;;107.57;;
41221;SDS011;26952;42.884;23.918;2022-09-03T02:10:23;112.40;;;106.50;;
41221;SDS011;26952;42.884;23.918;2022-09-03T02:12:56;104.15;;;98.88;;
41221;SDS011;26952;42.884;23.918;2022-09-03T02:15:25;110.68;;;104.85;;
41221;SDS011;26952;42.884;23.918;2022-09-03T02:17:53;116.80;;;110.90;;
41221;SDS011;26952;42.884;23.918;2022-09-03T02:20:24;113.07;;;107.28;;
41221;SDS011;26952;42.884;23.918;2022-09-03T02:22:52;111.47;;;105.82;;
41221;SDS011;26952;42.884;23.918;2022-09-03T02:25:18;114.90;;;109.07;;
41221;SDS011;26952;42.884;23.918;2022-09-03T02:27:47;106.95;;;101.05;;
41221;SDS011;26952;42.884;23.918;2022-09-03T02:30:14;110.63;;;104.93;;
41221;SDS011;26952;42.884;23.918;2022-09-03T02:32:42;102.47;;;97.15;;
41221;SDS011;26952;42.884;23.918;2022-09-03T02:35:08;109.15;;;103.07;;
41221;SDS011;26952;42.884;23.918;2022-09-03T02:37:34;101.05;;;95.78;;
41221;SDS011;26952;42.884;23.918;2022-09-03T02:39:59;107.45;;;101.93;;
41221;SDS011;26952;42.884;23.918;2022-09-03T02:42:25;102.82;;;97.57;;
41221;SDS011;26952;42.884;23.918;2022-09-03T02:44:52;108.15;;;102.28;;
41221;SDS011;26952;42.884;23.918;2022-09-03T02:49:47;89.63;;;84.95;;
41221;SDS011;26952;42.884;23.918;2022-09-03T02:52:13;102.05;;;96.70;;
41221;SDS011;26952;42.884;23.918;2022-09-03T02:54:39;114.10;;;108.13;;
41221;SDS011;26952;42.884;23.918;2022-09-03T02:57:08;117.80;;;111.50;;
41221;SDS011;26952;42.884;23.918;2022-09-03T02:59:34;116.50;;;110.18;;
41221;SDS011;26952;42.884;23.918;2022-09-03T03:02:01;114.63;;;108.55;;
41221;SDS011;26952;42.884;23.918;2022-09-03T03:04:28;107.57;;;102.10;;
41221;SDS011;26952;42.884;23.918;2022-09-03T03:06:54;106.35;;;100.65;;
41221;SDS011;26952;42.884;23.918;2022-09-03T03:09:19;108.97;;;102.95;;
41221;SDS011;26952;42.884;23.918;2022-09-03T03:11:45;113.00;;;106.95;;
41221;SDS011;26952;42.884;23.918;2022-09-03T03:14:10;107.30;;;101.63;;
41221;SDS011;26952;42.884;23.918;2022-09-03T03:16:36;109.43;;;103.78;;
41221;SDS011;26952;42.884;23.918;2022-09-03T03:19:01;104.65;;;98.75;;
41221;SDS011;26952;42.884;23.918;2022-09-03T03:21:27;114.43;;;108.18;;
41221;SDS011;26952;42.884;23.918;2022-09-03T03:23:52;113.10;;;106.90;;
41221;SDS011;26952;42.884;23.918;2022-09-03T03:26:19;116.28;;;110.03;;
41221;SDS011;26952;42.884;23.918;2022-09-03T03:28:46;112.40;;;106.43;;
41221;SDS011;26952;42.884;23.918;2022-09-03T03:31:17;113.95;;;107.68;;
41221;SDS011;26952;42.884;23.918;2022-09-03T03:33:49;99.55;;;94.10;;
41221;SDS011;26952;42.884;23.918;2022-09-03T03:36:16;109.63;;;103.28;;
41221;SDS011;26952;42.884;23.918;2022-09-03T03:38:42;102.47;;;96.28;;
41221;SDS011;26952;42.884;23.918;2022-09-03T03:41:13;112.40;;;106.22;;
41221;SDS011;26952;42.884;23.918;2022-09-03T03:43:39;102.22;;;96.35;;
41221;SDS011;26952;42.884;23.918;2022-09-03T03:46:05;119.38;;;107.50;;
41221;SDS011;26952;42.884;23.918;2022-09-03T03:48:31;116.05;;;109.90;;
41221;SDS011;26952;42.884;23.918;2022-09-03T03:50:59;110.82;;;104.90;;
41221;SDS011;26952;42.884;23.918;2022-09-03T03:53:31;101.25;;;95.35;;
41221;SDS011;26952;42.884;23.918;2022-09-03T03:56:02;104.13;;;98.40;;
41221;SDS011;26952;42.884;23.918;2022-09-03T03:58:29;105.03;;;99.35;;
41221;SDS011;26952;42.884;23.918;2022-09-03T04:01:02;101.80;;;95.97;;
41221;SDS011;26952;42.884;23.918;2022-09-03T04:03:31;101.18;;;95.38;;
41221;SDS011;26952;42.884;23.918;2022-09-03T04:05:57;100.07;;;94.18;;
41221;SDS011;26952;42.884;23.918;2022-09-03T04:08:25;105.38;;;99.43;;
41221;SDS011;26952;42.884;23.918;2022-09-03T04:10:50;106.25;;;100.13;;
41221;SDS011;26952;42.884;23.918;2022-09-03T04:13:16;115.15;;;108.82;;
41221;SDS011;26952;42.884;23.918;2022-09-03T04:15:41;105.10;;;99.38;;
41221;SDS011;26952;42.884;23.918;2022-09-03T04:18:07;110.07;;;103.85;;
41221;SDS011;26952;42.884;23.918;2022-09-03T04:20:34;94.78;;;89.70;;
41221;SDS011;26952;42.884;23.918;2022-09-03T04:23:00;104.95;;;99.40;;
41221;SDS011;26952;42.884;23.918;2022-09-03T04:25:27;112.10;;;105.75;;
41221;SDS011;26952;42.884;23.918;2022-09-03T04:27:52;111.95;;;105.78;;
41221;SDS011;26952;42.884;23.918;2022-09-03T04:30:18;107.65;;;101.82;;
41221;SDS011;26952;42.884;23.918;2022-09-03T04:32:44;104.85;;;99.15;;
41221;SDS011;26952;42.884;23.918;2022-09-03T04:35:20;98.18;;;92.90;;
41221;SDS011;26952;42.884;23.918;2022-09-03T04:37:46;96.30;;;90.97;;
41221;SDS011;26952;42.884;23.918;2022-09-03T04:40:12;95.43;;;90.32;;
41221;SDS011;26952;42.884;23.918;2022-09-03T04:42:38;96.38;;;90.95;;
41221;SDS011;26952;42.884;23.918;2022-09-03T04:45:03;96.93;;;91.38;;
41221;SDS011;26952;42.884;23.918;2022-09-03T04:47:29;98.85;;;93.32;;
41221;SDS011;26952;42.884;23.918;2022-09-03T04:49:56;97.30;;;91.85;;
41221;SDS011;26952;42.884;23.918;2022-09-03T04:52:21;92.72;;;87.53;;
41221;SDS011;26952;42.884;23.918;2022-09-03T04:54:46;96.38;;;91.00;;
41221;SDS011;26952;42.884;23.918;2022-09-03T04:57:12;92.28;;;87.13;;
41221;SDS011;26952;42.884;23.918;2022-09-03T04:59:37;90.95;;;85.40;;
41221;SDS011;26952;42.884;23.918;2022-09-03T05:02:05;91.97;;;86.72;;
41221;SDS011;26952;42.884;23.918;2022-09-03T05:04:31;99.00;;;93.38;;
41221;SDS011;26952;42.884;23.918;2022-09-03T05:06:56;99.15;;;93.57;;
41221;SDS011;26952;42.884;23.918;2022-09-03T05:09:22;101.20;;;95.45;;
41221;SDS011;26952;42.884;23.918;2022-09-03T05:11:48;110.70;;;104.35;;
41221;SDS011;26952;42.884;23.918;2022-09-03T05:14:13;109.35;;;103.28;;
41221;SDS011;26952;42.884;23.918;2022-09-03T05:16:39;101.72;;;96.15;;
41221;SDS011;26952;42.884;23.918;2022-09-03T05:19:04;105.47;;;99.82;;
41221;SDS011;26952;42.884;23.918;2022-09-03T05:21:30;98.47;;;93.15;;
41221;SDS011;26952;42.884;23.918;2022-09-03T05:23:56;93.72;;;88.47;;
41221;SDS011;26952;42.884;23.918;2022-09-03T05:26:24;86.22;;;81.32;;
41221;SDS011;26952;42.884;23.918;2022-09-03T05:28:53;91.35;;;86.18;;
41221;SDS011;26952;42.884;23.918;2022-09-03T05:31:24;89.18;;;84.32;;
41221;SDS011;26952;42.884;23.918;2022-09-03T05:33:53;87.63;;;82.32;;
41221;SDS011;26952;42.884;23.918;2022-09-03T05:36:22;90.05;;;84.78;;
41221;SDS011;26952;42.884;23.918;2022-09-03T05:38:48;84.85;;;79.88;;
41221;SDS011;26952;42.884;23.918;2022-09-03T05:41:14;87.38;;;82.40;;
41221;SDS011;26952;42.884;23.918;2022-09-03T05:43:41;86.70;;;81.43;;
41221;SDS011;26952;42.884;23.918;2022-09-03T05:46:11;87.32;;;82.07;;
41221;SDS011;26952;42.884;23.918;2022-09-03T05:48:39;85.13;;;80.20;;
41221;SDS011;26952;42.884;23.918;2022-09-03T05:51:06;95.63;;;90.05;;
41221;SDS011;26952;42.884;23.918;2022-09-03T05:53:34;83.40;;;78.28;;
41221;SDS011;26952;42.884;23.918;2022-09-03T05:56:05;78.40;;;73.75;;
41221;SDS011;26952;42.884;23.918;2022-09-03T05:58:36;81.10;;;76.35;;
41221;SDS011;26952;42.884;23.918;2022-09-03T06:01:27;82.57;;;77.72;;
41221;SDS011;26952;42.884;23.918;2022-09-03T06:03:54;79.03;;;74.25;;
41221;SDS011;26952;42.884;23.918;2022-09-03T06:06:24;76.78;;;72.45;;
41221;SDS011;26952;42.884;23.918;2022-09-03T06:08:52;81.65;;;77.13;;
41221;SDS011;26952;42.884;23.918;2022-09-03T06:11:19;83.43;;;78.80;;
41221;SDS011;26952;42.884;23.918;2022-09-03T06:13:45;81.55;;;77.10;;
41221;SDS011;26952;42.884;23.918;2022-09-03T06:16:11;81.25;;;76.97;;
41221;SDS011;26952;42.884;23.918;2022-09-03T06:18:37;71.35;;;67.50;;
41221;SDS011;26952;42.884;23.918;2022-09-03T06:21:04;76.45;;;72.10;;
41221;SDS011;26952;42.884;23.918;2022-09-03T06:23:31;78.47;;;73.97;;
41221;SDS011;26952;42.884;23.918;2022-09-03T06:26:05;74.53;;;70.43;;
41221;SDS011;26952;42.884;23.918;2022-09-03T06:28:33;77.43;;;73.05;;
41221;SDS011;26952;42.884;23.918;2022-09-03T06:31:00;73.28;;;68.78;;
41221;SDS011;26952;42.884;23.918;2022-09-03T06:33:30;73.68;;;69.40;;
41221;SDS011;26952;42.884;23.918;2022-09-03T06:35:58;76.07;;;71.63;;
41221;SDS011;26952;42.884;23.918;2022-09-03T06:38:26;81.30;;;76.90;;
41221;SDS011;26952;42.884;23.918;2022-09-03T06:40:53;79.32;;;74.97;;
41221;SDS011;26952;42.884;23.918;2022-09-03T06:43:20;75.03;;;70.88;;
41221;SDS011;26952;42.884;23.918;2022-09-03T06:45:53;82.38;;;77.78;;
41221;SDS011;26952;42.884;23.918;2022-09-03T06:48:20;77.40;;;73.20;;
41221;SDS011;26952;42.884;23.918;2022-09-03T06:50:53;86.30;;;81.47;;
41221;SDS011;26952;42.884;23.918;2022-09-03T06:53:29;79.88;;;75.30;;
41221;SDS011;26952;42.884;23.918;2022-09-03T06:55:57;81.13;;;76.43;;
41221;SDS011;26952;42.884;23.918;2022-09-03T06:58:27;77.25;;;72.97;;
41221;SDS011;26952;42.884;23.918;2022-09-03T07:00:59;80.25;;;75.35;;
41221;SDS011;26952;42.884;23.918;2022-09-03T07:03:25;81.28;;;76.75;;
41221;SDS011;26952;42.884;23.918;2022-09-03T07:05:51;90.82;;;85.85;;
41221;SDS011;26952;42.884;23.918;2022-09-03T07:08:16;88.10;;;83.28;;
41221;SDS011;26952;42.884;23.918;2022-09-03T07:10:44;92.03;;;87.13;;
41221;SDS011;26952;42.884;23.918;2022-09-03T07:13:11;86.82;;;82.18;;
41221;SDS011;26952;42.884;23.918;2022-09-03T07:15:37;86.82;;;82.22;;
41221;SDS011;26952;42.884;23.918;2022-09-03T07:18:05;90.43;;;85.65;;
41221;SDS011;26952;42.884;23.918;2022-09-03T07:20:30;90.68;;;85.90;;
41221;SDS011;26952;42.884;23.918;2022-09-03T07:22:56;102.72;;;97.40;;
41221;SDS011;26952;42.884;23.918;2022-09-03T07:25:22;103.70;;;98.18;;
41221;SDS011;26952;42.884;23.918;2022-09-03T07:27:48;95.43;;;90.40;;
41221;SDS011;26952;42.884;23.918;2022-09-03T07:30:15;96.22;;;91.20;;
41221;SDS011;26952;42.884;23.918;2022-09-03T07:32:42;104.63;;;99.15;;
41221;SDS011;26952;42.884;23.918;2022-09-03T07:35:08;103.20;;;97.38;;
41221;SDS011;26952;42.884;23.918;2022-09-03T07:37:33;92.90;;;88.00;;
41221;SDS011;26952;42.884;23.918;2022-09-03T07:39:59;95.32;;;90.05;;
41221;SDS011;26952;42.884;23.918;2022-09-03T07:42:25;82.13;;;77.65;;
41221;SDS011;26952;42.884;23.918;2022-09-03T07:44:55;75.32;;;71.22;;
41221;SDS011;26952;42.884;23.918;2022-09-03T07:47:20;106.95;;;101.10;;
41221;SDS011;26952;42.884;23.918;2022-09-03T07:49:45;105.47;;;99.88;;
41221;SDS011;26952;42.884;23.918;2022-09-03T07:52:12;71.07;;;67.10;;
41221;SDS011;26952;42.884;23.918;2022-09-03T07:54:37;54.90;;;51.83;;
41221;SDS011;26952;42.884;23.918;2022-09-03T07:57:02;68.40;;;64.60;;
41221;SDS011;26952;42.884;23.918;2022-09-03T07:59:29;77.13;;;72.97;;
41221;SDS011;26952;42.884;23.918;2022-09-03T08:01:55;92.55;;;87.57;;
41221;SDS011;26952;42.884;23.918;2022-09-03T08:04:21;90.78;;;85.80;;
41221;SDS011;26952;42.884;23.918;2022-09-03T08:06:46;122.40;;;115.85;;
41221;SDS011;26952;42.884;23.918;2022-09-03T08:09:12;121.95;;;115.25;;
41221;SDS011;26952;42.884;23.918;2022-09-03T08:11:39;81.35;;;76.65;;
41221;SDS011;26952;42.884;23.918;2022-09-03T08:14:08;104.30;;;98.88;;
41221;SDS011;26952;42.884;23.918;2022-09-03T08:16:39;118.28;;;111.95;;
41221;SDS011;26952;42.884;23.918;2022-09-03T08:19:07;123.25;;;116.90;;
41221;SDS011;26952;42.884;23.918;2022-09-03T08:21:32;133.35;;;126.38;;
41221;SDS011;26952;42.884;23.918;2022-09-03T08:23:58;113.40;;;107.50;;
41221;SDS011;26952;42.884;23.918;2022-09-03T08:26:27;79.63;;;75.45;;
41221;SDS011;26952;42.884;23.918;2022-09-03T08:28:55;85.97;;;81.45;;
41221;SDS011;26952;42.884;23.918;2022-09-03T08:31:21;93.60;;;88.82;;
41221;SDS011;26952;42.884;23.918;2022-09-03T08:33:49;100.75;;;95.45;;
41221;SDS011;26952;42.884;23.918;2022-09-03T08:36:27;104.07;;;98.65;;
41221;SDS011;26952;42.884;23.918;2022-09-03T08:38:54;114.75;;;109.03;;
41221;SDS011;26952;42.884;23.918;2022-09-03T08:41:27;99.95;;;94.93;;
41221;SDS011;26952;42.884;23.918;2022-09-03T08:46:56;89.05;;;84.60;;
41221;SDS011;26952;42.884;23.918;2022-09-03T08:52:05;71.70;;;67.95;;
41221;SDS011;26952;42.884;23.918;2022-09-03T08:54:40;76.78;;;72.70;;
41221;SDS011;26952;42.884;23.918;2022-09-03T08:57:07;91.38;;;86.47;;
41221;SDS011;26952;42.884;23.918;2022-09-03T08:59:33;86.93;;;82.47;;
41221;SDS011;26952;42.884;23.918;2022-09-03T09:08:05;71.13;;;67.45;;
41221;SDS011;26952;42.884;23.918;2022-09-03T09:10:56;63.83;;;60.15;;
41221;SDS011;26952;42.884;23.918;2022-09-03T09:13:33;59.45;;;56.35;;
41221;SDS011;26952;42.884;23.918;2022-09-03T09:21:15;88.47;;;84.00;;
41221;SDS011;26952;42.884;23.918;2022-09-03T09:23:46;77.50;;;73.40;;
41221;SDS011;26952;42.884;23.918;2022-09-03T09:26:17;82.75;;;78.47;;
41221;SDS011;26952;42.884;23.918;2022-09-03T09:28:46;84.50;;;80.07;;
41221;SDS011;26952;42.884;23.918;2022-09-03T09:31:18;95.55;;;90.63;;
41221;SDS011;26952;42.884;23.918;2022-09-03T09:33:44;78.32;;;74.22;;
41221;SDS011;26952;42.884;23.918;2022-09-03T09:36:11;89.97;;;85.35;;
41221;SDS011;26952;42.884;23.918;2022-09-03T09:38:41;89.20;;;84.60;;
41221;SDS011;26952;42.884;23.918;2022-09-03T09:41:15;78.57;;;74.38;;
41221;SDS011;26952;42.884;23.918;2022-09-03T09:43:44;90.18;;;85.15;;
41221;SDS011;26952;42.884;23.918;2022-09-03T09:46:15;90.37;;;85.40;;
41221;SDS011;26952;42.884;23.918;2022-09-03T09:48:49;69.60;;;65.95;;
41221;SDS011;26952;42.884;23.918;2022-09-03T09:53:46;100.37;;;95.17;;
41221;SDS011;26952;42.884;23.918;2022-09-03T09:56:25;81.75;;;77.03;;
41221;SDS011;26952;42.884;23.918;2022-09-03T10:01:28;63.22;;;59.78;;
41221;SDS011;26952;42.884;23.918;2022-09-03T10:03:57;61.35;;;58.00;;
41221;SDS011;26952;42.884;23.918;2022-09-03T10:06:25;64.82;;;61.22;;
41221;SDS011;26952;42.884;23.918;2022-09-03T10:09:13;62.53;;;59.28;;
41221;SDS011;26952;42.884;23.918;2022-09-03T10:11:47;67.50;;;63.80;;
41221;SDS011;26952;42.884;23.918;2022-09-03T10:14:24;78.28;;;73.75;;
41221;SDS011;26952;42.884;23.918;2022-09-03T10:17:00;71.85;;;68.15;;
41221;SDS011;26952;42.884;23.918;2022-09-03T10:19:42;67.05;;;63.42;;
41221;SDS011;26952;42.884;23.918;2022-09-03T10:22:38;62.80;;;59.45;;
41221;SDS011;26952;42.884;23.918;2022-09-03T10:25:10;73.70;;;69.68;;
41221;SDS011;26952;42.884;23.918;2022-09-03T10:27:39;81.10;;;76.75;;
41221;SDS011;26952;42.884;23.918;2022-09-03T10:30:04;93.88;;;88.80;;
41221;SDS011;26952;42.884;23.918;2022-09-03T10:51:40;28.20;;;26.58;;
41221;SDS011;26952;42.884;23.918;2022-09-03T11:00:08;46.30;;;43.70;;
41221;SDS011;26952;42.884;23.918;2022-09-03T11:05:40;51.75;;;48.95;;
41221;SDS011;26952;42.884;23.918;2022-09-03T11:08:20;47.33;;;44.83;;
41221;SDS011;26952;42.884;23.918;2022-09-03T11:11:35;57.25;;;54.20;;
41221;SDS011;26952;42.884;23.918;2022-09-03T11:14:31;51.38;;;48.55;;
41221;SDS011;26952;42.884;23.918;2022-09-03T11:16:39;52.88;;;50.13;;
41221;SDS011;26952;42.884;23.918;2022-09-03T11:19:10;50.70;;;47.92;;
41221;SDS011;26952;42.884;23.918;2022-09-03T11:21:40;46.78;;;44.17;;
41221;SDS011;26952;42.884;23.918;2022-09-03T11:24:24;39.58;;;37.30;;
41221;SDS011;26952;42.884;23.918;2022-09-03T11:26:56;37.97;;;35.97;;
41221;SDS011;26952;42.884;23.918;2022-09-03T11:29:43;33.42;;;31.42;;
41221;SDS011;26952;42.884;23.918;2022-09-03T11:32:19;37.55;;;35.45;;
41221;SDS011;26952;42.884;23.918;2022-09-03T11:39:42;48.63;;;46.08;;
41221;SDS011;26952;42.884;23.918;2022-09-03T11:42:09;47.85;;;45.35;;
41221;SDS011;26952;42.884;23.918;2022-09-03T11:44:48;44.35;;;42.00;;
41221;SDS011;26952;42.884;23.918;2022-09-03T11:47:20;37.30;;;35.22;;
41221;SDS011;26952;42.884;23.918;2022-09-03T11:50:06;38.08;;;35.92;;
41221;SDS011;26952;42.884;23.918;2022-09-03T11:52:44;39.67;;;37.42;;
41221;SDS011;26952;42.884;23.918;2022-09-03T11:55:10;29.30;;;27.45;;
41221;SDS011;26952;42.884;23.918;2022-09-03T11:57:40;28.63;;;26.95;;
41221;SDS011;26952;42.884;23.918;2022-09-03T12:00:13;34.58;;;32.72;;
41221;SDS011;26952;42.884;23.918;2022-09-03T12:02:56;34.47;;;32.50;;
41221;SDS011;26952;42.884;23.918;2022-09-03T12:14:05;55.90;;;52.97;;
41221;SDS011;26952;42.884;23.918;2022-09-03T12:22:05;63.05;;;59.88;;
41221;SDS011;26952;42.884;23.918;2022-09-03T12:24:30;62.45;;;59.22;;
41221;SDS011;26952;42.884;23.918;2022-09-03T12:26:59;55.45;;;52.53;;
41221;SDS011;26952;42.884;23.918;2022-09-03T12:29:27;46.75;;;43.70;;
41221;SDS011;26952;42.884;23.918;2022-09-03T12:31:54;22.50;;;21.15;;
41221;SDS011;26952;42.884;23.918;2022-09-03T12:34:20;23.15;;;21.85;;
41221;SDS011;26952;42.884;23.918;2022-09-03T12:36:51;24.38;;;23.05;;
41221;SDS011;26952;42.884;23.918;2022-09-03T12:39:18;27.25;;;25.63;;
41221;SDS011;26952;42.884;23.918;2022-09-03T12:44:31;30.58;;;28.92;;
41221;SDS011;26952;42.884;23.918;2022-09-03T12:47:04;43.55;;;41.03;;
41221;SDS011;26952;42.884;23.918;2022-09-03T12:49:46;38.75;;;36.75;;
41221;SDS011;26952;42.884;23.918;2022-09-03T12:52:27;36.45;;;34.42;;
41221;SDS011;26952;42.884;23.918;2022-09-03T12:57:35;43.88;;;41.58;;
41221;SDS011;26952;42.884;23.918;2022-09-03T13:00:13;37.78;;;35.78;;
41221;SDS011;26952;42.884;23.918;2022-09-03T13:02:52;39.40;;;37.30;;
41221;SDS011;26952;42.884;23.918;2022-09-03T13:05:31;35.28;;;33.47;;
41221;SDS011;26952;42.884;23.918;2022-09-03T13:08:00;37.72;;;35.67;;
41221;SDS011;26952;42.884;23.918;2022-09-03T13:10:37;40.95;;;38.78;;
41221;SDS011;26952;42.884;23.918;2022-09-03T13:13:23;35.15;;;33.35;;
41221;SDS011;26952;42.884;23.918;2022-09-03T13:19:03;39.60;;;37.60;;
41221;SDS011;26952;42.884;23.918;2022-09-03T13:30:10;31.92;;;30.23;;
41221;SDS011;26952;42.884;23.918;2022-09-03T13:35:11;38.80;;;36.80;;
41221;SDS011;26952;42.884;23.918;2022-09-03T13:40:36;27.98;;;26.42;;
41221;SDS011;26952;42.884;23.918;2022-09-03T13:46:07;28.88;;;27.33;;
41221;SDS011;26952;42.884;23.918;2022-09-03T13:48:42;32.90;;;31.00;;
41221;SDS011;26952;42.884;23.918;2022-09-03T13:51:35;32.67;;;30.83;;
41221;SDS011;26952;42.884;23.918;2022-09-03T13:54:19;30.05;;;28.30;;
41221;SDS011;26952;42.884;23.918;2022-09-03T14:15:30;32.00;;;30.10;;
41221;SDS011;26952;42.884;23.918;2022-09-03T14:20:52;25.70;;;24.25;;
41221;SDS011;26952;42.884;23.918;2022-09-03T14:23:41;28.38;;;26.67;;
41221;SDS011;26952;42.884;23.918;2022-09-03T14:26:14;24.55;;;23.17;;
41221;SDS011;26952;42.884;23.918;2022-09-03T14:28:44;23.77;;;22.42;;
41221;SDS011;26952;42.884;23.918;2022-09-03T15:07:39;49.67;;;46.97;;
41221;SDS011;26952;42.884;23.918;2022-09-03T15:12:51;51.60;;;48.67;;
41221;SDS011;26952;42.884;23.918;2022-09-03T15:18:19;69.75;;;65.60;;
41221;SDS011;26952;42.884;23.918;2022-09-03T15:20:50;79.15;;;74.85;;
41221;SDS011;26952;42.884;23.918;2022-09-03T15:34:08;83.13;;;78.45;;
41221;SDS011;26952;42.884;23.918;2022-09-03T15:36:56;83.30;;;78.63;;
41221;SDS011;26952;42.884;23.918;2022-09-03T15:39:30;91.05;;;85.95;;
41221;SDS011;26952;42.884;23.918;2022-09-03T15:42:00;87.78;;;82.80;;
41221;SDS011;26952;42.884;23.918;2022-09-03T15:44:35;95.70;;;90.43;;
41221;SDS011;26952;42.884;23.918;2022-09-03T15:47:06;96.78;;;91.47;;
41221;SDS011;26952;42.884;23.918;2022-09-03T15:55:13;90.78;;;85.85;;
41221;SDS011;26952;42.884;23.918;2022-09-03T15:57:54;87.55;;;82.72;;
41221;SDS011;26952;42.884;23.918;2022-09-03T16:03:07;81.00;;;76.30;;
41221;SDS011;26952;42.884;23.918;2022-09-03T16:05:37;73.63;;;69.57;;
41221;SDS011;26952;42.884;23.918;2022-09-03T16:08:20;71.35;;;67.40;;
41221;SDS011;26952;42.884;23.918;2022-09-03T16:16:45;61.22;;;57.50;;
41221;SDS011;26952;42.884;23.918;2022-09-03T16:22:14;74.10;;;69.05;;
41221;SDS011;26952;42.884;23.918;2022-09-03T16:24:50;81.82;;;77.07;;
41221;SDS011;26952;42.884;23.918;2022-09-03T16:29:57;77.40;;;73.05;;
41221;SDS011;26952;42.884;23.918;2022-09-03T16:40:57;96.00;;;90.63;;
41221;SDS011;26952;42.884;23.918;2022-09-03T16:43:54;103.32;;;97.35;;
41221;SDS011;26952;42.884;23.918;2022-09-03T16:46:48;95.10;;;89.82;;
41221;SDS011;26952;42.884;23.918;2022-09-03T17:11:14;112.03;;;105.50;;
41221;SDS011;26952;42.884;23.918;2022-09-03T17:13:59;103.68;;;97.93;;
41221;SDS011;26952;42.884;23.918;2022-09-03T17:30:17;121.47;;;114.53;;
41221;SDS011;26952;42.884;23.918;2022-09-03T17:45:48;135.13;;;127.70;;
41221;SDS011;26952;42.884;23.918;2022-09-03T18:04:50;137.68;;;129.73;;
41221;SDS011;26952;42.884;23.918;2022-09-03T18:17:58;128.15;;;120.82;;
41221;SDS011;26952;42.884;23.918;2022-09-03T18:20:39;126.65;;;119.15;;
41221;SDS011;26952;42.884;23.918;2022-09-03T18:23:32;119.82;;;112.80;;
41221;SDS011;26952;42.884;23.918;2022-09-03T18:26:32;115.45;;;108.32;;
41221;SDS011;26952;42.884;23.918;2022-09-03T18:32:12;103.35;;;96.55;;
41221;SDS011;26952;42.884;23.918;2022-09-03T18:34:56;93.13;;;87.80;;
41221;SDS011;26952;42.884;23.918;2022-09-03T18:37:40;91.38;;;85.95;;
41221;SDS011;26952;42.884;23.918;2022-09-03T18:40:32;84.20;;;78.95;;
41221;SDS011;26952;42.884;23.918;2022-09-03T18:43:55;72.63;;;67.72;;
41221;SDS011;26952;42.884;23.918;2022-09-03T18:50:28;69.15;;;64.97;;
41221;SDS011;26952;42.884;23.918;2022-09-03T18:53:35;56.72;;;53.17;;
41221;SDS011;26952;42.884;23.918;2022-09-03T18:56:37;58.40;;;54.15;;
41221;SDS011;26952;42.884;23.918;2022-09-03T19:11:57;61.35;;;57.35;;
41221;SDS011;26952;42.884;23.918;2022-09-03T19:15:12;51.75;;;48.40;;
41221;SDS011;26952;42.884;23.918;2022-09-03T19:21:16;48.92;;;45.70;;
41221;SDS011;26952;42.884;23.918;2022-09-03T19:24:12;52.63;;;49.13;;
41221;SDS011;26952;42.884;23.918;2022-09-03T19:26:58;50.35;;;46.97;;
41221;SDS011;26952;42.884;23.918;2022-09-03T19:36:47;51.85;;;48.17;;
41221;SDS011;26952;42.884;23.918;2022-09-03T19:48:24;53.10;;;49.15;;
41221;SDS011;26952;42.884;23.918;2022-09-03T19:51:29;56.78;;;52.67;;
41221;SDS011;26952;42.884;23.918;2022-09-03T19:54:19;56.42;;;52.72;;
41221;SDS011;26952;42.884;23.918;2022-09-03T19:57:06;57.45;;;53.78;;
41221;SDS011;26952;42.884;23.918;2022-09-03T19:59:54;51.95;;;48.22;;
41221;SDS011;26952;42.884;23.918;2022-09-03T20:02:41;60.15;;;56.05;;
41221;SDS011;26952;42.884;23.918;2022-09-03T20:05:30;59.00;;;54.80;;
41221;SDS011;26952;42.884;23.918;2022-09-03T20:08:15;54.75;;;51.00;;
41221;SDS011;26952;42.884;23.918;2022-09-03T20:11:00;53.67;;;49.63;;
41221;SDS011;26952;42.884;23.918;2022-09-03T20:13:28;57.17;;;53.45;;
41221;SDS011;26952;42.884;23.918;2022-09-03T20:16:18;60.10;;;56.05;;
41221;SDS011;26952;42.884;23.918;2022-09-03T20:19:09;57.03;;;52.00;;
41221;SDS011;26952;42.884;23.918;2022-09-03T20:24:21;57.95;;;54.25;;
41221;SDS011;26952;42.884;23.918;2022-09-03T20:32:25;55.20;;;51.40;;
41221;SDS011;26952;42.884;23.918;2022-09-03T20:40:16;65.00;;;60.83;;
41221;SDS011;26952;42.884;23.918;2022-09-03T20:45:53;67.38;;;63.08;;
41221;SDS011;26952;42.884;23.918;2022-09-03T20:48:24;67.75;;;62.95;;
41221;SDS011;26952;42.884;23.918;2022-09-03T20:51:13;69.30;;;64.88;;
41221;SDS011;26952;42.884;23.918;2022-09-03T20:58:55;96.45;;;90.32;;
41221;SDS011;26952;42.884;23.918;2022-09-03T21:01:37;96.57;;;90.32;;
41221;SDS011;26952;42.884;23.918;2022-09-03T21:31:23;68.72;;;64.20;;